Sunapee, NH

6:18 PM EST on January 25, 2015 (GMT -0500)
Meadow Brook | Change Station
CLOSE
Current Station
Personal Weather Station
Location: Sunapee, NH
Elevation: 1142 ft
Nearby Weather Stations
Active Advisory: Winter Storm Warning

Elev 1142 ft 43.37 °N, 72.08 °W | Updated 2 minutes ago

Clear
Clear
15.9 °F
Feels Like 5 °F
N
8.0
Wind Variable Wind from NW
Gusts 17.0 mph

Today
High -- | Low -- °F
--% Chance of Precip.
Yesterday
High -- | Low -- °F
Precip. -- in
7:11 AM 4:50 PM
Waxing Crescent, 36% visible
Pressure 29.89 in
Visibility 10.0 miles
Clouds Clear
Windchill 5 °F
Dew Point -3 °F
Humidity 43%
Rainfall -999.00 in
Snow Depth Not available.
UV 0 out of 12
Pollen .10 out of 12
Air Quality Not available.
Flu Activity Not available.
METAR KLEB 252253Z 33009KT 10SM CLR M08/M18 A2986 RMK AO2 SLP122 T10781178

More Conditions Fewer Conditions

Pressure 29.89 in
Visibility 10.0 miles
Clouds Clear
Windchill 5 °F
Dew Point -3 °F
Humidity 43%
Rainfall -999.00 in
Snow Depth Not available.
UV 0 out of 12
Pollen .10 out of 12
Air Quality Not available.
Flu Activity Not available.
METAR KLEB 252253Z 33009KT 10SM CLR M08/M18 A2986 RMK AO2 SLP122 T10781178

More Conditions Fewer Conditions

10-Day Weather Forecast

Almanac

Astronomy

Jan. 25, 2015 Rise Set
Actual Time
Civil Twilight
Nautical Twilight
Astronomical Twilight
Moon
Length of Visible Light
Length of Day
Tomorrow will be .
, % of the Moon is Illuminated

Today's Extremes

State Highs State Lows

Community

WunderPhotos

Upload Photos

1,790,085 photos uploaded!

WunderBlogs® & News

Nearby

Air Quality

  Air Quality AQ Index Pollutant
Not available.

Snow Depth

Station Depth Elevation

Earthquake Activity

City Distance Mag. Time & Date
Minimum magnitude displayed is 2.5.

Coastal Water Temperatures

Place Temperature

Nearby Weather Stations